createdAt,value
2018-09-05T00:01:00.355Z,94.10
2018-09-05T00:03:28.911Z,94.60
2018-09-05T00:05:57.346Z,94.80
2018-09-05T00:08:25.797Z,94.90
2018-09-05T00:10:54.243Z,95.10
2018-09-05T00:13:23.193Z,95.30
2018-09-05T00:15:51.751Z,95.20
2018-09-05T00:18:20.315Z,95.20
2018-09-05T00:20:48.771Z,95.30
2018-09-05T00:23:17.270Z,95.60
2018-09-05T00:25:46.342Z,95.20
2018-09-05T00:28:14.978Z,95.10
2018-09-05T00:30:43.559Z,95.10
2018-09-05T00:33:12.788Z,95.40
2018-09-05T00:35:41.410Z,95.50
2018-09-05T00:38:09.899Z,95.50
2018-09-05T00:40:38.401Z,95.40
2018-09-05T00:43:06.828Z,95.00
2018-09-05T00:45:35.322Z,95.20
2018-09-05T00:48:03.796Z,95.20
2018-09-05T00:50:32.717Z,95.30
2018-09-05T00:53:01.183Z,95.00
2018-09-05T00:55:29.702Z,95.20
2018-09-05T00:57:58.763Z,95.20
2018-09-05T01:00:27.377Z,95.20
2018-09-05T01:02:55.933Z,95.20
2018-09-05T01:05:24.694Z,95.20
2018-09-05T01:07:53.220Z,95.10
2018-09-05T01:10:22.214Z,95.00
2018-09-05T01:12:50.964Z,95.00
2018-09-05T01:15:19.496Z,95.10
2018-09-05T01:17:47.953Z,95.00
2018-09-05T01:20:16.945Z,94.80
2018-09-05T01:22:45.399Z,94.60
2018-09-05T01:25:13.790Z,94.60
2018-09-05T01:27:42.256Z,94.90
2018-09-05T01:30:10.841Z,95.10
2018-09-05T01:32:39.398Z,95.10
2018-09-05T01:35:07.948Z,95.20
2018-09-05T01:37:36.426Z,95.30
2018-09-05T01:40:04.983Z,95.40
2018-09-05T01:42:33.571Z,95.40
2018-09-05T01:45:02.389Z,95.30
2018-09-05T01:47:30.933Z,95.20
2018-09-05T01:49:59.404Z,95.10
2018-09-05T01:52:27.903Z,95.20
2018-09-05T01:54:56.374Z,95.50
2018-09-05T01:57:25.178Z,95.60
2018-09-05T01:59:53.809Z,95.70
2018-09-05T02:02:24.738Z,95.70
2018-09-05T02:04:54.125Z,95.40
2018-09-05T02:07:22.618Z,95.30
2018-09-05T02:09:51.567Z,95.20
2018-09-05T02:12:20.579Z,95.30
2018-09-05T02:14:49.034Z,95.30
2018-09-05T02:17:17.468Z,95.30
2018-09-05T02:19:46.001Z,95.30
2018-09-05T02:22:14.397Z,95.30
2018-09-05T02:24:42.810Z,95.60
2018-09-05T02:27:11.261Z,95.70
2018-09-05T02:29:39.674Z,95.60
2018-09-05T02:32:08.209Z,95.50
2018-09-05T02:34:37.087Z,95.40
2018-09-05T02:37:05.542Z,95.40
2018-09-05T02:39:34.026Z,95.70
2018-09-05T02:42:03.165Z,95.80
2018-09-05T02:44:31.760Z,95.60
2018-09-05T02:47:00.335Z,95.70
2018-09-05T02:49:28.865Z,95.80
2018-09-05T02:53:14.079Z,95.90
2018-09-05T02:55:55.713Z,96.20
2018-09-05T02:58:24.565Z,96.30
2018-09-05T03:01:15.814Z,96.20
2018-09-05T03:03:57.068Z,96.20
2018-09-05T03:06:26.472Z,96.00
2018-09-05T03:08:56.110Z,95.90
2018-09-05T03:11:24.644Z,96.00
2018-09-05T03:13:53.179Z,96.20
2018-09-05T03:16:21.629Z,96.80
2018-09-05T03:18:50.137Z,96.80
2018-09-05T03:21:18.647Z,96.80
2018-09-05T03:23:47.132Z,97.00
2018-09-05T03:26:15.600Z,96.80
2018-09-05T03:28:44.064Z,96.50
2018-09-05T03:31:12.542Z,96.40
2018-09-05T03:33:41.012Z,96.30
2018-09-05T03:36:09.613Z,96.50
2018-09-05T03:38:38.093Z,96.60
2018-09-05T03:41:06.947Z,96.70
2018-09-05T03:43:35.512Z,95.40
2018-09-05T03:46:04.066Z,95.40
2018-09-05T03:48:32.598Z,95.40
2018-09-05T03:51:01.081Z,94.10
2018-09-05T03:53:29.554Z,93.20
2018-09-05T03:55:57.972Z,94.60
2018-09-05T03:58:26.625Z,94.90
2018-09-05T04:00:55.133Z,95.50
2018-09-05T04:03:24.551Z,95.70
2018-09-05T04:05:53.169Z,95.70
2018-09-05T04:08:22.633Z,95.70
2018-09-05T04:10:51.132Z,95.70
2018-09-05T04:13:20.450Z,95.60
2018-09-05T04:15:49.051Z,95.80
2018-09-05T04:18:17.725Z,95.90
2018-09-05T05:08:23.688Z,97.30
2018-09-05T05:11:09.585Z,97.00
2018-09-05T05:18:23.746Z,96.50
2018-09-05T05:23:48.544Z,96.50
2018-09-05T05:26:32.814Z,96.50
2018-09-05T05:29:06.692Z,95.40
2018-09-05T05:31:45.083Z,95.80
2018-09-05T05:34:22.552Z,96.10
2018-09-05T05:37:05.793Z,96.30
2018-09-05T05:39:48.077Z,96.50
2018-09-05T05:42:27.780Z,96.70
2018-09-05T05:45:08.992Z,96.60
2018-09-05T05:47:55.558Z,97.40
2018-09-05T05:50:26.249Z,97.60
2018-09-05T05:53:04.465Z,97.70
2018-09-05T05:55:32.966Z,97.60
2018-09-05T05:58:03.825Z,97.10
2018-09-05T06:00:32.233Z,96.70
2018-09-05T06:03:01.136Z,96.20
2018-09-05T06:05:29.398Z,95.70
2018-09-05T06:10:32.268Z,95.40
2018-09-05T06:13:00.512Z,95.50
2018-09-05T06:15:29.028Z,95.90
2018-09-05T06:17:57.660Z,95.90
2018-09-05T06:20:25.922Z,96.30
2018-09-05T06:22:54.181Z,96.20
2018-09-05T06:25:22.600Z,96.30
2018-09-05T06:27:50.844Z,96.30
2018-09-05T06:30:19.119Z,96.00
2018-09-05T06:32:47.398Z,96.30
2018-09-05T06:35:15.628Z,96.10
2018-09-05T06:37:44.014Z,95.70
2018-09-05T06:40:12.241Z,95.80
2018-09-05T06:42:40.522Z,95.70
2018-09-05T06:45:08.893Z,95.80
2018-09-05T06:47:37.043Z,93.90
2018-09-05T06:50:05.313Z,94.80
2018-09-05T06:52:33.766Z,94.70
2018-09-05T06:55:03.293Z,95.20
2018-09-05T06:57:31.535Z,95.40
2018-09-05T06:59:59.823Z,95.10
2018-09-05T07:02:28.529Z,95.00
2018-09-05T07:04:56.805Z,94.80
2018-09-05T07:07:26.124Z,95.30
2018-09-05T07:09:54.393Z,95.30
2018-09-05T07:12:22.652Z,94.90
2018-09-05T07:14:50.881Z,94.60
2018-09-05T07:17:19.145Z,94.90
2018-09-05T07:19:47.393Z,95.50
2018-09-05T07:22:15.671Z,95.30
2018-09-05T07:24:43.938Z,95.40
2018-09-05T07:27:12.172Z,95.50
2018-09-05T07:29:40.433Z,95.50
2018-09-05T07:32:09.309Z,95.50
2018-09-05T07:34:37.561Z,95.50
2018-09-05T07:37:05.827Z,95.60
2018-09-05T07:39:34.082Z,95.50
2018-09-05T07:42:02.302Z,95.40
2018-09-05T07:44:30.557Z,95.40
2018-09-05T07:46:58.877Z,95.50
2018-09-05T07:49:27.157Z,95.30
2018-09-05T07:51:55.427Z,95.20
2018-09-05T07:56:58.292Z,96.00
2018-09-05T07:59:26.569Z,96.00
2018-09-05T08:01:54.841Z,96.70
2018-09-05T08:04:23.118Z,97.10
2018-09-05T08:06:51.364Z,97.20
2018-09-05T08:09:19.712Z,97.10
2018-09-05T08:11:47.984Z,97.10
2018-09-05T08:14:16.503Z,97.00
2018-09-05T08:16:44.724Z,96.40
2018-09-05T08:19:12.954Z,96.40
2018-09-05T08:21:41.814Z,96.50
2018-09-05T08:24:10.081Z,96.70
2018-09-05T08:26:38.310Z,96.90
2018-09-05T08:29:06.575Z,96.90
2018-09-05T08:31:34.804Z,97.10
2018-09-05T08:34:03.065Z,97.10
2018-09-05T08:36:31.552Z,97.10
2018-09-05T08:38:59.752Z,97.40
2018-09-05T08:41:27.914Z,97.30
2018-09-05T08:43:56.469Z,97.70
2018-09-05T08:46:24.667Z,97.90
2018-09-05T08:48:52.907Z,97.90
2018-09-05T08:51:21.210Z,98.10
2018-09-05T08:53:49.943Z,97.70
2018-09-05T08:56:18.326Z,97.70
2018-09-05T08:58:46.572Z,97.50
2018-09-05T09:01:14.796Z,97.70
2018-09-05T09:03:43.107Z,97.60
2018-09-05T09:06:11.362Z,97.50
2018-09-05T09:08:39.607Z,98.10
2018-09-05T09:11:07.859Z,98.40
2018-09-05T09:13:36.404Z,98.40
2018-09-05T09:16:04.681Z,98.40
2018-09-05T09:18:32.948Z,98.40
2018-09-05T09:21:01.205Z,98.40
2018-09-05T09:23:29.470Z,98.40
2018-09-05T09:25:57.722Z,98.50
2018-09-05T09:28:26.029Z,98.30
2018-09-05T09:30:54.231Z,98.70
2018-09-05T09:33:22.580Z,98.60
2018-09-05T09:35:51.299Z,98.40
2018-09-05T09:38:19.548Z,98.50
2018-09-05T09:40:47.814Z,98.60
2018-09-05T09:43:16.134Z,98.80
2018-09-05T09:45:44.377Z,98.20
2018-09-05T09:48:12.614Z,98.20
2018-09-05T09:50:40.861Z,98.10
2018-09-05T09:53:09.112Z,98.40
2018-09-05T09:55:37.357Z,98.10
2018-09-05T09:58:06.121Z,97.90
2018-09-05T10:00:39.641Z,98.20
2018-09-05T10:03:13.286Z,98.20
2018-09-05T10:05:46.875Z,98.70
2018-09-05T10:08:20.484Z,98.80
2018-09-05T10:10:54.092Z,99.10
2018-09-05T10:13:27.772Z,99.00
2018-09-05T10:16:01.426Z,98.90
2018-09-05T10:18:31.014Z,98.80
2018-09-05T10:20:59.303Z,99.40
2018-09-05T10:23:27.536Z,99.00
2018-09-05T10:25:55.828Z,98.90
2018-09-05T10:28:24.088Z,98.70
2018-09-05T10:30:52.326Z,98.90
2018-09-05T10:33:20.565Z,98.90
2018-09-05T10:35:48.854Z,98.70
2018-09-05T10:38:17.103Z,98.50
2018-09-05T10:40:45.857Z,98.60
2018-09-05T10:43:14.154Z,98.60
2018-09-05T10:45:43.029Z,98.80
2018-09-05T10:48:11.363Z,98.80
2018-09-05T10:50:39.709Z,98.80
2018-09-05T10:53:08.018Z,98.60
2018-09-05T10:55:36.413Z,98.50
2018-09-05T10:58:05.178Z,98.60
2018-09-05T11:00:33.351Z,98.50
2018-09-05T11:03:01.624Z,98.40
2018-09-05T11:05:29.873Z,98.50
2018-09-05T11:07:58.145Z,98.60
2018-09-05T11:10:26.457Z,98.40
2018-09-05T11:12:54.651Z,98.20
2018-09-05T11:15:22.883Z,98.20
2018-09-05T11:17:52.394Z,98.30
2018-09-05T11:20:20.760Z,98.00
2018-09-05T11:22:49.009Z,98.20
2018-09-05T11:25:17.257Z,98.30
2018-09-05T11:27:45.644Z,98.20
2018-09-05T11:30:13.955Z,97.70
2018-09-05T11:32:42.474Z,98.00
2018-09-05T11:35:10.725Z,97.70
2018-09-05T11:37:39.019Z,97.60
2018-09-05T11:40:07.367Z,97.30
2018-09-05T11:42:35.603Z,96.90
2018-09-05T11:45:03.903Z,96.60
2018-09-05T11:47:32.730Z,95.90
2018-09-05T11:50:00.975Z,95.50
2018-09-05T11:52:29.252Z,96.00
2018-09-05T11:54:57.523Z,95.70
2018-09-05T11:57:25.828Z,95.60
2018-09-05T11:59:54.045Z,95.70
2018-09-05T12:02:22.334Z,95.40
2018-09-05T12:04:50.585Z,95.60
2018-09-05T12:07:18.853Z,94.70
2018-09-05T12:09:47.139Z,95.40
2018-09-05T12:12:15.412Z,94.80
2018-09-05T12:14:43.638Z,94.20
2018-09-05T12:17:11.884Z,94.60
2018-09-05T12:19:40.154Z,94.50
2018-09-05T12:22:08.439Z,95.10
2018-09-05T12:24:38.673Z,94.10
2018-09-05T12:27:06.933Z,93.20
2018-09-05T12:29:35.841Z,92.70
2018-09-05T12:32:04.104Z,93.10
2018-09-05T12:34:32.435Z,94.00
2018-09-05T12:37:01.684Z,91.50
2018-09-05T12:39:30.891Z,92.40
2018-09-05T12:41:59.236Z,92.30
2018-09-05T12:44:27.526Z,91.20
2018-09-05T12:46:56.499Z,91.80
2018-09-05T12:49:24.745Z,92.50
2018-09-05T12:51:53.009Z,92.80
2018-09-05T12:54:21.937Z,90.90
2018-09-05T12:56:50.211Z,91.40
2018-09-05T12:59:18.492Z,90.80
2018-09-05T13:01:46.762Z,91.00
2018-09-05T13:04:15.598Z,91.00
2018-09-05T13:06:43.865Z,91.00
2018-09-05T13:09:13.558Z,89.80
2018-09-05T13:11:43.133Z,90.30
2018-09-05T13:14:11.461Z,90.70
2018-09-05T13:16:39.774Z,89.50
2018-09-05T13:19:09.001Z,89.50
2018-09-05T13:21:37.605Z,87.30
2018-09-05T13:24:07.052Z,88.90
2018-09-05T13:26:35.332Z,89.90
2018-09-05T13:29:04.177Z,90.10
2018-09-05T13:31:32.449Z,88.00
2018-09-05T13:34:03.257Z,88.60
2018-09-05T13:36:31.543Z,87.80
2018-09-05T13:38:59.793Z,89.80
2018-09-05T13:41:28.057Z,86.50
2018-09-05T13:43:56.394Z,86.50
2018-09-05T13:46:25.279Z,87.90
2018-09-05T13:48:53.526Z,87.70
2018-09-05T13:51:21.854Z,89.70
2018-09-05T13:53:51.296Z,88.70
2018-09-05T13:56:20.196Z,86.00
2018-09-05T13:58:48.417Z,87.90
2018-09-05T14:01:16.683Z,87.90
2018-09-05T14:03:45.173Z,86.20
2018-09-05T14:06:13.450Z,84.40
2018-09-05T14:08:41.837Z,81.80
2018-09-05T14:11:10.162Z,83.80
2018-09-05T14:13:38.474Z,82.20
2018-09-05T14:16:06.960Z,83.50
2018-09-05T14:18:35.251Z,82.10
2018-09-05T14:21:03.525Z,84.00
2018-09-05T14:23:33.273Z,82.30
2018-09-05T14:26:03.429Z,82.30
2018-09-05T14:28:31.665Z,81.70
2018-09-05T14:30:59.922Z,82.60
2018-09-05T14:33:28.245Z,84.00
2018-09-05T14:35:56.653Z,83.10
2018-09-05T14:38:24.955Z,83.60
2018-09-05T14:40:53.203Z,84.10
2018-09-05T14:43:22.323Z,85.20
2018-09-05T14:45:50.687Z,84.10
2018-09-05T14:48:19.449Z,83.70
2018-09-05T14:50:47.643Z,83.20
2018-09-05T14:53:15.902Z,81.60
2018-09-05T14:55:44.176Z,82.70
2018-09-05T14:58:12.433Z,84.50
2018-09-05T15:00:40.700Z,84.90
2018-09-05T15:03:09.503Z,83.50
2018-09-05T15:05:37.805Z,84.70
2018-09-05T15:08:06.143Z,85.50
2018-09-05T15:10:35.069Z,86.40
2018-09-05T15:13:03.314Z,86.80
2018-09-05T15:15:31.644Z,87.30
2018-09-05T15:18:05.102Z,88.40
2018-09-05T15:20:34.312Z,89.50
2018-09-05T15:23:02.566Z,90.20
2018-09-05T15:25:30.963Z,90.50
2018-09-05T15:27:59.293Z,91.00
2018-09-05T15:30:27.595Z,91.20
2018-09-05T15:32:55.942Z,91.50
2018-09-05T15:35:24.214Z,91.70
2018-09-05T15:37:52.460Z,91.80
2018-09-05T15:40:21.370Z,92.00
2018-09-05T15:42:49.635Z,92.20
2018-09-05T15:45:18.702Z,92.00
2018-09-05T15:47:47.090Z,91.90
2018-09-05T15:50:15.503Z,92.30
2018-09-05T15:52:44.820Z,92.50
2018-09-05T15:55:14.665Z,92.80
2018-09-05T15:57:46.612Z,92.60
2018-09-05T16:00:14.848Z,92.80
2018-09-05T16:02:43.114Z,92.60
2018-09-05T16:05:11.386Z,93.20
2018-09-05T16:07:39.658Z,92.90
2018-09-05T16:10:07.963Z,92.60
2018-09-05T16:12:36.227Z,93.00
2018-09-05T16:15:05.047Z,92.60
2018-09-05T16:17:33.300Z,92.70
2018-09-05T16:20:01.956Z,92.60
2018-09-05T16:22:30.286Z,92.00
2018-09-05T16:24:58.533Z,92.00
2018-09-05T16:27:26.770Z,91.80
2018-09-05T16:29:55.074Z,91.80
2018-09-05T16:32:23.327Z,91.60
2018-09-05T16:34:51.579Z,91.50
2018-09-05T16:37:19.862Z,91.80
2018-09-05T16:39:48.187Z,91.30
2018-09-05T16:42:16.622Z,91.50
2018-09-05T16:44:47.119Z,91.20
2018-09-05T16:47:15.436Z,91.40
2018-09-05T16:49:44.419Z,91.30
2018-09-05T16:52:13.567Z,91.00
2018-09-05T16:54:41.947Z,91.40
2018-09-05T16:57:13.521Z,91.20
2018-09-05T16:59:41.822Z,91.20
2018-09-05T17:02:10.318Z,91.20
2018-09-05T17:04:38.570Z,91.40
2018-09-05T17:07:06.814Z,91.60
2018-09-05T17:09:35.093Z,91.60
2018-09-05T17:12:03.369Z,91.80
2018-09-05T17:14:31.649Z,91.90
2018-09-05T17:16:59.981Z,91.70
2018-09-05T17:19:28.338Z,91.50
2018-09-05T17:21:56.590Z,91.30
2018-09-05T17:24:24.866Z,91.70
2018-09-05T17:26:53.198Z,91.60
2018-09-05T17:29:21.682Z,91.70
2018-09-05T17:31:49.988Z,91.40
2018-09-05T17:34:18.254Z,91.60
2018-09-05T17:36:46.641Z,91.60
2018-09-05T17:39:16.391Z,91.70
2018-09-05T17:41:44.639Z,91.80
2018-09-05T17:44:12.898Z,91.90
2018-09-05T17:46:41.234Z,91.70
2018-09-05T17:49:10.716Z,91.90
2018-09-05T17:51:39.891Z,91.70
2018-09-05T17:54:08.378Z,91.90
2018-09-05T17:56:36.670Z,92.30
2018-09-05T17:59:05.295Z,92.30
2018-09-05T18:01:33.665Z,92.30
2018-09-05T18:04:01.904Z,92.40
2018-09-05T18:06:30.191Z,92.80
2018-09-05T18:08:58.471Z,93.00
2018-09-05T18:11:26.772Z,93.00
2018-09-05T18:13:55.083Z,93.20
2018-09-05T18:16:23.384Z,93.10
2018-09-05T18:18:51.704Z,93.10
2018-09-05T18:21:20.009Z,93.30
2018-09-05T18:23:48.263Z,93.30
2018-09-05T18:26:16.778Z,93.40
2018-09-05T18:28:45.080Z,92.80
2018-09-05T18:31:13.466Z,93.00
2018-09-05T18:33:45.350Z,93.00
2018-09-05T18:36:13.717Z,93.10
2018-09-05T18:38:41.964Z,93.00
2018-09-05T18:41:13.235Z,93.10
2018-09-05T18:43:41.467Z,93.00
2018-09-05T18:46:09.725Z,93.00
2018-09-05T18:48:38.725Z,93.10
2018-09-05T18:51:07.044Z,93.00
2018-09-05T18:53:35.302Z,93.00
2018-09-05T18:56:03.561Z,93.00
2018-09-05T18:58:31.828Z,93.30
2018-09-05T19:01:00.113Z,93.70
2018-09-05T19:03:30.665Z,93.70
2018-09-05T19:05:58.925Z,93.60
2018-09-05T19:08:27.200Z,93.80
2018-09-05T19:10:55.443Z,93.90
2018-09-05T19:13:23.694Z,94.20
2018-09-05T19:15:52.562Z,94.10
2018-09-05T19:18:21.768Z,94.10
2018-09-05T19:20:50.101Z,94.10
2018-09-05T19:23:18.339Z,94.60
2018-09-05T19:25:46.636Z,94.80
2018-09-05T19:28:14.872Z,95.00
2018-09-05T19:30:43.808Z,95.10
2018-09-05T19:33:12.137Z,95.10
2018-09-05T19:35:40.750Z,94.90
2018-09-05T19:38:09.064Z,95.00
2018-09-05T19:40:37.324Z,95.40
2018-09-05T19:43:05.616Z,95.50
2018-09-05T19:45:33.892Z,95.40
2018-09-05T19:48:02.556Z,95.60
2018-09-05T19:50:31.587Z,95.40
2018-09-05T19:52:59.897Z,95.40
2018-09-05T19:55:28.187Z,95.40
2018-09-05T19:57:56.449Z,95.40
2018-09-05T20:00:24.862Z,95.30
2018-09-05T20:02:53.119Z,95.40
2018-09-05T20:05:21.420Z,95.40
2018-09-05T20:07:49.698Z,95.30
2018-09-05T20:10:18.476Z,95.40
2018-09-05T20:12:46.783Z,95.50
2018-09-05T20:15:15.111Z,95.50
2018-09-05T20:17:44.364Z,95.40
2018-09-05T20:20:12.648Z,95.10
2018-09-05T20:22:40.917Z,95.00
2018-09-05T20:25:09.198Z,95.20
2018-09-05T20:27:37.509Z,95.10
2018-09-05T20:30:05.778Z,95.10
2018-09-05T20:32:34.387Z,95.00
2018-09-05T20:35:03.839Z,95.10
2018-09-05T20:37:32.110Z,94.90
2018-09-05T20:40:00.351Z,95.40
2018-09-05T20:42:28.607Z,95.30
2018-09-05T20:44:56.893Z,95.40
2018-09-05T20:47:25.156Z,95.50
2018-09-05T20:49:53.410Z,95.60
2018-09-05T20:52:21.693Z,95.60
2018-09-05T20:54:50.869Z,96.00
2018-09-05T20:57:19.121Z,95.50
2018-09-05T20:59:47.977Z,95.50
2018-09-05T21:02:16.289Z,95.60
2018-09-05T21:04:44.601Z,95.50
2018-09-05T21:07:12.913Z,95.20
2018-09-05T21:09:41.189Z,95.30
2018-09-05T21:12:09.432Z,95.10
2018-09-05T21:14:37.729Z,95.20
2018-09-05T21:41:27.906Z,95.40
2018-09-05T21:43:56.623Z,95.30
2018-09-05T21:46:27.458Z,95.80
2018-09-05T21:48:58.327Z,96.20
2018-09-05T21:51:26.935Z,96.20
2018-09-05T21:54:04.837Z,96.40
2018-09-05T21:56:33.169Z,96.60
2018-09-05T21:59:01.535Z,96.50
2018-09-05T22:01:29.851Z,96.70
2018-09-05T22:03:58.146Z,97.00
2018-09-05T22:06:26.424Z,96.80
2018-09-05T22:08:54.690Z,96.70
2018-09-05T22:11:23.991Z,96.60
2018-09-05T22:13:54.946Z,96.20
2018-09-05T22:16:23.196Z,95.90
2018-09-05T22:18:51.568Z,95.80
2018-09-05T22:21:20.240Z,95.80
2018-09-05T22:23:48.551Z,95.70
2018-09-05T22:26:17.085Z,95.90
2018-09-05T22:28:45.351Z,96.00
2018-09-05T22:31:13.659Z,95.90
2018-09-05T22:33:44.004Z,95.70
2018-09-05T22:36:13.370Z,95.60
2018-09-05T22:38:41.612Z,95.40
2018-09-05T22:41:10.390Z,95.60
2018-09-05T22:43:49.943Z,95.40
2018-09-05T22:48:37.773Z,95.70
2018-09-05T22:53:28.489Z,95.70
2018-09-05T22:58:17.122Z,95.90
2018-09-05T23:00:56.821Z,95.50
2018-09-05T23:04:05.244Z,95.50
2018-09-05T23:08:45.248Z,96.00
2018-09-05T23:11:24.771Z,96.30
2018-09-05T23:14:04.589Z,96.20
2018-09-05T23:18:50.575Z,96.40
2018-09-05T23:21:20.675Z,96.40
2018-09-05T23:24:06.208Z,96.50
2018-09-05T23:26:34.480Z,96.60
2018-09-05T23:29:02.743Z,96.40
2018-09-05T23:31:30.993Z,96.50
2018-09-05T23:33:59.258Z,96.50
2018-09-05T23:36:27.536Z,96.60
2018-09-05T23:38:55.801Z,96.70
2018-09-05T23:41:24.043Z,96.70
2018-09-05T23:43:52.331Z,96.30
2018-09-05T23:46:20.677Z,96.90
2018-09-05T23:48:50.069Z,96.30
2018-09-05T23:51:19.764Z,95.80
2018-09-05T23:53:49.901Z,96.70
2018-09-05T23:56:19.507Z,97.00
2018-09-05T23:58:49.711Z,97.00
